sensor_id;sensor_type;location;lat;lon;timestamp;pressure;altitude;pressure_sealevel;temperature;humidity
38612;BME280;24368;52.156;20.788;2023-06-26T00:01:26;100400.76;;;17.30;89.73
38612;BME280;24368;52.156;20.788;2023-06-26T00:06:30;100401.03;;;16.97;92.45
38612;BME280;24368;52.156;20.788;2023-06-26T00:11:31;100403.48;;;17.01;93.72
38612;BME280;24368;52.156;20.788;2023-06-26T00:16:34;100400.64;;;17.05;93.78
38612;BME280;24368;52.156;20.788;2023-06-26T00:21:35;100399.33;;;16.88;95.85
38612;BME280;24368;52.156;20.788;2023-06-26T00:26:36;100399.70;;;16.94;95.75
38612;BME280;24368;52.156;20.788;2023-06-26T00:31:37;100401.52;;;17.03;95.40
38612;BME280;24368;52.156;20.788;2023-06-26T00:36:38;100404.75;;;16.90;96.03
38612;BME280;24368;52.156;20.788;2023-06-26T00:41:39;100402.45;;;16.39;98.20
38612;BME280;24368;52.156;20.788;2023-06-26T00:46:41;100401.83;;;16.43;99.55
38612;BME280;24368;52.156;20.788;2023-06-26T00:51:43;100397.31;;;16.30;99.25
38612;BME280;24368;52.156;20.788;2023-06-26T00:56:45;100393.56;;;16.05;100.00
38612;BME280;24368;52.156;20.788;2023-06-26T01:01:46;100390.59;;;15.85;100.00
38612;BME280;24368;52.156;20.788;2023-06-26T01:06:49;100386.75;;;16.05;100.00
38612;BME280;24368;52.156;20.788;2023-06-26T01:11:53;100382.98;;;15.82;100.00
38612;BME280;24368;52.156;20.788;2023-06-26T01:16:54;100382.48;;;15.63;100.00
38612;BME280;24368;52.156;20.788;2023-06-26T01:22:12;100382.61;;;15.72;100.00
38612;BME280;24368;52.156;20.788;2023-06-26T01:27:17;100372.27;;;15.78;100.00
38612;BME280;24368;52.156;20.788;2023-06-26T01:32:20;100368.02;;;15.94;100.00
38612;BME280;24368;52.156;20.788;2023-06-26T01:37:22;100365.77;;;16.03;100.00
38612;BME280;24368;52.156;20.788;2023-06-26T01:42:23;100365.30;;;16.09;100.00
38612;BME280;24368;52.156;20.788;2023-06-26T01:47:27;100364.08;;;15.97;100.00
38612;BME280;24368;52.156;20.788;2023-06-26T01:52:48;100356.29;;;15.68;100.00
38612;BME280;24368;52.156;20.788;2023-06-26T01:57:56;100362.33;;;15.38;100.00
38612;BME280;24368;52.156;20.788;2023-06-26T02:02:58;100361.05;;;15.42;100.00
38612;BME280;24368;52.156;20.788;2023-06-26T02:07:59;100356.89;;;15.42;100.00
38612;BME280;24368;52.156;20.788;2023-06-26T02:13:02;100357.13;;;15.39;100.00
38612;BME280;24368;52.156;20.788;2023-06-26T02:18:03;100352.95;;;15.39;100.00
38612;BME280;24368;52.156;20.788;2023-06-26T02:23:04;100349.73;;;15.50;100.00
38612;BME280;24368;52.156;20.788;2023-06-26T02:28:05;100348.39;;;15.26;100.00
38612;BME280;24368;52.156;20.788;2023-06-26T02:33:06;100345.91;;;15.04;100.00
38612;BME280;24368;52.156;20.788;2023-06-26T02:38:07;100341.69;;;14.85;100.00
38612;BME280;24368;52.156;20.788;2023-06-26T02:43:09;100340.13;;;14.88;100.00
38612;BME280;24368;52.156;20.788;2023-06-26T02:48:10;100341.33;;;15.15;100.00
38612;BME280;24368;52.156;20.788;2023-06-26T02:53:12;100347.34;;;14.98;100.00
38612;BME280;24368;52.156;20.788;2023-06-26T02:58:13;100348.05;;;14.76;100.00
38612;BME280;24368;52.156;20.788;2023-06-26T03:03:14;100345.77;;;14.75;100.00
38612;BME280;24368;52.156;20.788;2023-06-26T03:08:15;100345.66;;;14.81;100.00
38612;BME280;24368;52.156;20.788;2023-06-26T03:13:17;100345.16;;;14.67;100.00
38612;BME280;24368;52.156;20.788;2023-06-26T03:18:18;100347.59;;;14.73;100.00
38612;BME280;24368;52.156;20.788;2023-06-26T03:23:20;100348.89;;;14.97;100.00
38612;BME280;24368;52.156;20.788;2023-06-26T03:28:21;100347.45;;;15.03;100.00
38612;BME280;24368;52.156;20.788;2023-06-26T03:33:22;100351.38;;;14.97;100.00
38612;BME280;24368;52.156;20.788;2023-06-26T03:38:23;100354.77;;;14.98;100.00
38612;BME280;24368;52.156;20.788;2023-06-26T03:43:25;100350.27;;;15.07;100.00
38612;BME280;24368;52.156;20.788;2023-06-26T03:48:26;100356.35;;;15.26;100.00
38612;BME280;24368;52.156;20.788;2023-06-26T03:53:28;100356.86;;;15.31;100.00
38612;BME280;24368;52.156;20.788;2023-06-26T03:58:29;100356.27;;;15.30;100.00
38612;BME280;24368;52.156;20.788;2023-06-26T04:03:30;100354.36;;;15.34;100.00
38612;BME280;24368;52.156;20.788;2023-06-26T04:08:32;100356.06;;;15.39;100.00
38612;BME280;24368;52.156;20.788;2023-06-26T04:13:33;100356.24;;;15.51;100.00
38612;BME280;24368;52.156;20.788;2023-06-26T04:18:34;100356.05;;;15.69;100.00
38612;BME280;24368;52.156;20.788;2023-06-26T04:23:35;100351.60;;;15.74;100.00
38612;BME280;24368;52.156;20.788;2023-06-26T04:28:37;100353.77;;;15.77;100.00
38612;BME280;24368;52.156;20.788;2023-06-26T04:33:38;100359.05;;;15.80;100.00
38612;BME280;24368;52.156;20.788;2023-06-26T04:38:39;100358.23;;;15.84;100.00
38612;BME280;24368;52.156;20.788;2023-06-26T04:43:40;100355.27;;;15.94;100.00
38612;BME280;24368;52.156;20.788;2023-06-26T04:48:41;100353.36;;;16.12;100.00
38612;BME280;24368;52.156;20.788;2023-06-26T04:53:43;100349.38;;;16.38;100.00
38612;BME280;24368;52.156;20.788;2023-06-26T04:58:44;100354.55;;;16.54;100.00
38612;BME280;24368;52.156;20.788;2023-06-26T05:03:45;100354.66;;;16.67;100.00
38612;BME280;24368;52.156;20.788;2023-06-26T05:08:48;100351.94;;;16.77;100.00
38612;BME280;24368;52.156;20.788;2023-06-26T05:13:49;100348.42;;;16.87;100.00
38612;BME280;24368;52.156;20.788;2023-06-26T05:18:50;100352.06;;;17.03;100.00
38612;BME280;24368;52.156;20.788;2023-06-26T05:23:55;100342.66;;;17.25;100.00
38612;BME280;24368;52.156;20.788;2023-06-26T05:28:57;100338.69;;;17.38;100.00
38612;BME280;24368;52.156;20.788;2023-06-26T05:34:00;100336.89;;;17.52;100.00
38612;BME280;24368;52.156;20.788;2023-06-26T05:39:03;100336.41;;;17.66;100.00
38612;BME280;24368;52.156;20.788;2023-06-26T05:44:05;100337.17;;;17.77;99.01
38612;BME280;24368;52.156;20.788;2023-06-26T05:49:06;100331.98;;;17.89;97.76
38612;BME280;24368;52.156;20.788;2023-06-26T05:54:07;100331.77;;;18.06;96.80
38612;BME280;24368;52.156;20.788;2023-06-26T05:59:10;100330.85;;;18.30;93.30
38612;BME280;24368;52.156;20.788;2023-06-26T06:04:12;100332.88;;;18.35;92.30
38612;BME280;24368;52.156;20.788;2023-06-26T06:09:13;100331.02;;;18.42;93.80
38612;BME280;24368;52.156;20.788;2023-06-26T06:14:14;100327.40;;;18.53;93.32
38612;BME280;24368;52.156;20.788;2023-06-26T06:19:15;100323.89;;;18.63;92.71
38612;BME280;24368;52.156;20.788;2023-06-26T06:24:16;100324.52;;;18.77;88.99
38612;BME280;24368;52.156;20.788;2023-06-26T06:29:17;100320.54;;;18.96;90.83
38612;BME280;24368;52.156;20.788;2023-06-26T06:34:20;100321.72;;;19.16;91.20
38612;BME280;24368;52.156;20.788;2023-06-26T06:39:21;100321.96;;;19.28;90.69
38612;BME280;24368;52.156;20.788;2023-06-26T06:44:22;100322.65;;;19.42;88.08
38612;BME280;24368;52.156;20.788;2023-06-26T06:49:24;100316.36;;;19.57;87.78
38612;BME280;24368;52.156;20.788;2023-06-26T06:54:26;100314.23;;;19.58;87.38
38612;BME280;24368;52.156;20.788;2023-06-26T06:59:28;100318.23;;;19.73;84.91
38612;BME280;24368;52.156;20.788;2023-06-26T07:04:29;100319.80;;;19.89;81.75
38612;BME280;24368;52.156;20.788;2023-06-26T07:09:31;100322.28;;;20.00;79.46
38612;BME280;24368;52.156;20.788;2023-06-26T07:14:32;100319.46;;;20.15;78.49
38612;BME280;24368;52.156;20.788;2023-06-26T07:19:33;100313.20;;;20.34;78.66
38612;BME280;24368;52.156;20.788;2023-06-26T07:24:34;100315.78;;;20.49;75.50
38612;BME280;24368;52.156;20.788;2023-06-26T07:29:35;100313.06;;;20.58;74.37
38612;BME280;24368;52.156;20.788;2023-06-26T07:34:36;100312.48;;;20.76;76.78
38612;BME280;24368;52.156;20.788;2023-06-26T07:39:37;100309.61;;;20.79;76.99
38612;BME280;24368;52.156;20.788;2023-06-26T07:44:38;100307.64;;;20.94;75.82
38612;BME280;24368;52.156;20.788;2023-06-26T07:49:40;100312.39;;;20.98;74.11
38612;BME280;24368;52.156;20.788;2023-06-26T07:54:41;100311.08;;;21.11;74.13
38612;BME280;24368;52.156;20.788;2023-06-26T07:59:42;100309.88;;;21.12;74.51
38612;BME280;24368;52.156;20.788;2023-06-26T08:04:43;100304.00;;;21.19;74.47
38612;BME280;24368;52.156;20.788;2023-06-26T08:09:44;100305.45;;;21.41;75.00
38612;BME280;24368;52.156;20.788;2023-06-26T08:14:46;100296.59;;;21.55;73.28
38612;BME280;24368;52.156;20.788;2023-06-26T08:19:47;100296.90;;;21.68;69.38
38612;BME280;24368;52.156;20.788;2023-06-26T08:24:48;100292.45;;;21.69;67.93
38612;BME280;24368;52.156;20.788;2023-06-26T08:29:49;100296.36;;;21.83;68.46
38612;BME280;24368;52.156;20.788;2023-06-26T08:34:51;100296.30;;;21.88;66.85
38612;BME280;24368;52.156;20.788;2023-06-26T08:39:52;100284.66;;;21.90;65.48
38612;BME280;24368;52.156;20.788;2023-06-26T08:44:53;100290.45;;;21.96;65.27
38612;BME280;24368;52.156;20.788;2023-06-26T08:55:02;100283.54;;;22.44;57.93
38612;BME280;24368;52.156;20.788;2023-06-26T09:00:07;100279.48;;;22.32;53.95
38612;BME280;24368;52.156;20.788;2023-06-26T09:05:10;100277.84;;;22.71;54.75
38612;BME280;24368;52.156;20.788;2023-06-26T09:10:11;100275.09;;;22.70;56.50
38612;BME280;24368;52.156;20.788;2023-06-26T09:15:14;100272.21;;;22.82;55.93
38612;BME280;24368;52.156;20.788;2023-06-26T09:20:15;100268.83;;;22.94;54.77
38612;BME280;24368;52.156;20.788;2023-06-26T09:25:17;100267.21;;;23.17;54.05
38612;BME280;24368;52.156;20.788;2023-06-26T09:30:20;100264.34;;;23.16;53.05
38612;BME280;24368;52.156;20.788;2023-06-26T09:35:21;100253.55;;;23.08;51.10
38612;BME280;24368;52.156;20.788;2023-06-26T09:40:22;100259.39;;;23.37;49.88
38612;BME280;24368;52.156;20.788;2023-06-26T09:45:25;100254.88;;;23.55;48.19
38612;BME280;24368;52.156;20.788;2023-06-26T09:50:27;100249.98;;;23.72;49.68
38612;BME280;24368;52.156;20.788;2023-06-26T09:55:28;100253.73;;;23.99;48.82
38612;BME280;24368;52.156;20.788;2023-06-26T10:00:32;100248.77;;;24.10;48.67
38612;BME280;24368;52.156;20.788;2023-06-26T10:05:34;100253.09;;;24.16;48.35
38612;BME280;24368;52.156;20.788;2023-06-26T10:10:37;100251.33;;;24.21;47.05
38612;BME280;24368;52.156;20.788;2023-06-26T10:15:40;100245.09;;;24.33;46.98
38612;BME280;24368;52.156;20.788;2023-06-26T10:20:48;100232.07;;;24.34;46.61
38612;BME280;24368;52.156;20.788;2023-06-26T10:25:52;100235.80;;;24.53;46.09
38612;BME280;24368;52.156;20.788;2023-06-26T10:30:57;100228.91;;;24.64;45.99
38612;BME280;24368;52.156;20.788;2023-06-26T10:36:13;100225.60;;;24.70;45.84
38612;BME280;24368;52.156;20.788;2023-06-26T10:41:19;100215.98;;;24.84;45.37
38612;BME280;24368;52.156;20.788;2023-06-26T10:46:21;100211.40;;;24.94;46.10
38612;BME280;24368;52.156;20.788;2023-06-26T10:51:23;100204.45;;;25.01;46.30
38612;BME280;24368;52.156;20.788;2023-06-26T10:56:49;100201.52;;;25.33;46.15
38612;BME280;24368;52.156;20.788;2023-06-26T11:01:58;100205.15;;;25.50;43.81
38612;BME280;24368;52.156;20.788;2023-06-26T11:07:23;100202.70;;;25.60;43.08
38612;BME280;24368;52.156;20.788;2023-06-26T11:12:38;100198.22;;;25.79;43.02
38612;BME280;24368;52.156;20.788;2023-06-26T11:17:40;100190.60;;;26.07;41.90
38612;BME280;24368;52.156;20.788;2023-06-26T11:22:42;100180.02;;;26.22;42.04
38612;BME280;24368;52.156;20.788;2023-06-26T11:27:44;100182.70;;;26.60;40.48
38612;BME280;24368;52.156;20.788;2023-06-26T11:32:45;100174.35;;;26.78;38.38
38612;BME280;24368;52.156;20.788;2023-06-26T11:37:46;100173.61;;;26.98;36.31
38612;BME280;24368;52.156;20.788;2023-06-26T11:42:47;100167.77;;;27.17;34.32
38612;BME280;24368;52.156;20.788;2023-06-26T11:47:49;100167.09;;;27.28;35.65
38612;BME280;24368;52.156;20.788;2023-06-26T11:52:54;100160.54;;;27.36;35.30
38612;BME280;24368;52.156;20.788;2023-06-26T11:57:57;100158.10;;;27.53;36.25
38612;BME280;24368;52.156;20.788;2023-06-26T12:02:58;100150.55;;;27.40;35.99
38612;BME280;24368;52.156;20.788;2023-06-26T12:08:00;100152.33;;;27.31;34.61
38612;BME280;24368;52.156;20.788;2023-06-26T12:13:02;100142.95;;;27.09;35.81
38612;BME280;24368;52.156;20.788;2023-06-26T12:18:09;100133.77;;;27.26;36.23
38612;BME280;24368;52.156;20.788;2023-06-26T12:23:14;100131.60;;;27.41;36.40
38612;BME280;24368;52.156;20.788;2023-06-26T12:28:16;100130.36;;;27.10;36.73
38612;BME280;24368;52.156;20.788;2023-06-26T12:33:18;100124.61;;;26.92;38.16
38612;BME280;24368;52.156;20.788;2023-06-26T12:38:19;100122.17;;;26.92;37.36
38612;BME280;24368;52.156;20.788;2023-06-26T12:43:25;100122.52;;;27.00;38.40
38612;BME280;24368;52.156;20.788;2023-06-26T12:48:40;100116.83;;;27.05;38.06
38612;BME280;24368;52.156;20.788;2023-06-26T12:53:44;100106.77;;;26.93;38.35
38612;BME280;24368;52.156;20.788;2023-06-26T12:58:45;100100.49;;;26.72;38.86
38612;BME280;24368;52.156;20.788;2023-06-26T13:03:46;100099.64;;;26.78;39.07
38612;BME280;24368;52.156;20.788;2023-06-26T13:08:48;100098.23;;;27.05;38.41
38612;BME280;24368;52.156;20.788;2023-06-26T13:13:49;100092.72;;;27.09;38.29
38612;BME280;24368;52.156;20.788;2023-06-26T13:18:50;100084.04;;;27.10;38.55
38612;BME280;24368;52.156;20.788;2023-06-26T13:23:52;100078.58;;;27.01;38.78
38612;BME280;24368;52.156;20.788;2023-06-26T13:28:53;100073.14;;;27.15;38.28
38612;BME280;24368;52.156;20.788;2023-06-26T13:33:58;100068.23;;;27.01;38.24
38612;BME280;24368;52.156;20.788;2023-06-26T13:38:59;100065.30;;;26.73;40.16
38612;BME280;24368;52.156;20.788;2023-06-26T13:44:00;100061.44;;;26.68;40.23
38612;BME280;24368;52.156;20.788;2023-06-26T13:49:01;100058.35;;;26.70;39.42
38612;BME280;24368;52.156;20.788;2023-06-26T13:54:03;100049.79;;;26.77;39.33
38612;BME280;24368;52.156;20.788;2023-06-26T13:59:04;100037.41;;;27.06;39.46
38612;BME280;24368;52.156;20.788;2023-06-26T14:04:05;100035.16;;;27.26;39.08
38612;BME280;24368;52.156;20.788;2023-06-26T14:09:06;100031.94;;;27.36;38.14
38612;BME280;24368;52.156;20.788;2023-06-26T14:14:07;100025.95;;;27.59;38.02
38612;BME280;24368;52.156;20.788;2023-06-26T14:19:08;100025.33;;;27.69;37.58
38612;BME280;24368;52.156;20.788;2023-06-26T14:24:15;100014.92;;;27.57;37.37
38612;BME280;24368;52.156;20.788;2023-06-26T14:29:16;100017.86;;;27.54;37.03
38612;BME280;24368;52.156;20.788;2023-06-26T14:34:18;100003.93;;;27.66;37.59
38612;BME280;24368;52.156;20.788;2023-06-26T14:39:19;100002.34;;;27.51;37.88
38612;BME280;24368;52.156;20.788;2023-06-26T14:44:20;99997.66;;;27.53;37.02
38612;BME280;24368;52.156;20.788;2023-06-26T14:49:21;99987.06;;;27.59;37.39
38612;BME280;24368;52.156;20.788;2023-06-26T14:54:22;99978.73;;;27.69;36.91
38612;BME280;24368;52.156;20.788;2023-06-26T14:59:24;99972.55;;;27.62;36.75
38612;BME280;24368;52.156;20.788;2023-06-26T15:04:25;99966.30;;;27.69;36.97
38612;BME280;24368;52.156;20.788;2023-06-26T15:09:26;99964.80;;;27.60;36.68
38612;BME280;24368;52.156;20.788;2023-06-26T15:14:27;99955.28;;;27.47;36.93
38612;BME280;24368;52.156;20.788;2023-06-26T15:19:28;99951.34;;;27.52;37.11
38612;BME280;24368;52.156;20.788;2023-06-26T15:24:29;99940.84;;;27.64;36.52
38612;BME280;24368;52.156;20.788;2023-06-26T15:29:30;99930.83;;;27.71;36.30
38612;BME280;24368;52.156;20.788;2023-06-26T15:34:32;99925.02;;;27.74;36.44
38612;BME280;24368;52.156;20.788;2023-06-26T15:39:33;99919.23;;;27.96;36.68
38612;BME280;24368;52.156;20.788;2023-06-26T15:44:34;99916.02;;;27.98;35.46
38612;BME280;24368;52.156;20.788;2023-06-26T15:49:35;99911.64;;;28.01;35.86
38612;BME280;24368;52.156;20.788;2023-06-26T15:54:36;99907.21;;;27.95;36.25
38612;BME280;24368;52.156;20.788;2023-06-26T15:59:38;99902.67;;;27.62;36.86
38612;BME280;24368;52.156;20.788;2023-06-26T16:04:39;99899.61;;;27.51;37.09
38612;BME280;24368;52.156;20.788;2023-06-26T16:09:40;99896.20;;;27.40;37.96
38612;BME280;24368;52.156;20.788;2023-06-26T16:14:41;99889.77;;;27.24;37.82
38612;BME280;24368;52.156;20.788;2023-06-26T16:19:42;99890.73;;;27.11;37.47
38612;BME280;24368;52.156;20.788;2023-06-26T16:24:43;99889.09;;;27.11;37.78
38612;BME280;24368;52.156;20.788;2023-06-26T16:29:45;99887.45;;;27.06;37.03
38612;BME280;24368;52.156;20.788;2023-06-26T16:34:46;99887.25;;;26.98;36.86
38612;BME280;24368;52.156;20.788;2023-06-26T16:39:47;99884.65;;;26.97;36.95
38612;BME280;24368;52.156;20.788;2023-06-26T16:44:48;99882.44;;;26.92;37.45
38612;BME280;24368;52.156;20.788;2023-06-26T16:49:49;99875.39;;;26.83;39.21
38612;BME280;24368;52.156;20.788;2023-06-26T16:54:50;99874.75;;;26.76;39.47
38612;BME280;24368;52.156;20.788;2023-06-26T16:59:51;99881.20;;;26.73;38.50
38612;BME280;24368;52.156;20.788;2023-06-26T17:04:53;99880.17;;;26.73;38.10
38612;BME280;24368;52.156;20.788;2023-06-26T17:09:55;99876.66;;;26.67;39.22
38612;BME280;24368;52.156;20.788;2023-06-26T17:14:56;99881.70;;;26.61;39.57
38612;BME280;24368;52.156;20.788;2023-06-26T17:19:57;99888.25;;;26.50;40.19
38612;BME280;24368;52.156;20.788;2023-06-26T17:24:58;99888.96;;;26.47;39.52
38612;BME280;24368;52.156;20.788;2023-06-26T17:30:03;99891.14;;;26.39;41.12
38612;BME280;24368;52.156;20.788;2023-06-26T17:35:06;99890.16;;;26.31;41.47
38612;BME280;24368;52.156;20.788;2023-06-26T17:40:09;99883.60;;;26.25;40.69
38612;BME280;24368;52.156;20.788;2023-06-26T17:45:10;99881.75;;;26.20;40.30
38612;BME280;24368;52.156;20.788;2023-06-26T17:50:12;99881.20;;;26.13;39.87
38612;BME280;24368;52.156;20.788;2023-06-26T17:55:14;99877.71;;;26.05;40.50
38612;BME280;24368;52.156;20.788;2023-06-26T18:00:16;99871.88;;;25.89;41.29
38612;BME280;24368;52.156;20.788;2023-06-26T18:05:17;99865.69;;;25.68;43.48
38612;BME280;24368;52.156;20.788;2023-06-26T18:10:18;99863.83;;;25.52;44.58
38612;BME280;24368;52.156;20.788;2023-06-26T18:15:21;99863.83;;;25.40;46.12
38612;BME280;24368;52.156;20.788;2023-06-26T18:20:22;99865.59;;;25.23;46.90
38612;BME280;24368;52.156;20.788;2023-06-26T18:25:24;99872.83;;;25.05;47.45
38612;BME280;24368;52.156;20.788;2023-06-26T18:30:25;99871.15;;;24.89;47.52
38612;BME280;24368;52.156;20.788;2023-06-26T18:35:26;99868.48;;;24.82;47.42
38612;BME280;24368;52.156;20.788;2023-06-26T18:40:27;99869.55;;;24.62;48.05
38612;BME280;24368;52.156;20.788;2023-06-26T18:45:28;99868.95;;;24.50;52.15
38612;BME280;24368;52.156;20.788;2023-06-26T18:50:29;99864.09;;;24.38;52.54
38612;BME280;24368;52.156;20.788;2023-06-26T18:55:30;99863.58;;;24.26;51.83
38612;BME280;24368;52.156;20.788;2023-06-26T19:00:34;99866.04;;;24.17;52.68
38612;BME280;24368;52.156;20.788;2023-06-26T19:05:35;99872.20;;;24.07;54.39
38612;BME280;24368;52.156;20.788;2023-06-26T19:10:37;99865.70;;;23.85;55.37
38612;BME280;24368;52.156;20.788;2023-06-26T19:15:39;99864.85;;;23.81;54.78
38612;BME280;24368;52.156;20.788;2023-06-26T19:20:40;99861.41;;;23.77;55.23
38612;BME280;24368;52.156;20.788;2023-06-26T19:25:41;99862.73;;;23.63;55.34
38612;BME280;24368;52.156;20.788;2023-06-26T19:30:42;99864.63;;;23.45;56.27
38612;BME280;24368;52.156;20.788;2023-06-26T19:35:44;99860.27;;;23.25;57.51
38612;BME280;24368;52.156;20.788;2023-06-26T19:40:45;99857.18;;;23.42;58.57
38612;BME280;24368;52.156;20.788;2023-06-26T19:45:46;99851.55;;;23.39;59.76
38612;BME280;24368;52.156;20.788;2023-06-26T19:50:47;99845.17;;;23.18;60.72
38612;BME280;24368;52.156;20.788;2023-06-26T19:55:48;99841.67;;;22.86;62.46
38612;BME280;24368;52.156;20.788;2023-06-26T20:00:49;99846.22;;;22.83;62.50
38612;BME280;24368;52.156;20.788;2023-06-26T20:05:51;99840.23;;;22.99;63.81
38612;BME280;24368;52.156;20.788;2023-06-26T20:10:52;99832.27;;;23.00;63.60
38612;BME280;24368;52.156;20.788;2023-06-26T20:15:53;99830.83;;;22.94;64.20
38612;BME280;24368;52.156;20.788;2023-06-26T20:20:54;99823.16;;;22.97;65.29
38612;BME280;24368;52.156;20.788;2023-06-26T20:25:55;99816.83;;;22.88;67.92
38612;BME280;24368;52.156;20.788;2023-06-26T20:30:56;99809.28;;;22.82;68.32
38612;BME280;24368;52.156;20.788;2023-06-26T20:35:57;99798.95;;;22.83;66.45
38612;BME280;24368;52.156;20.788;2023-06-26T20:40:59;99792.09;;;22.82;65.89
38612;BME280;24368;52.156;20.788;2023-06-26T20:46:01;99792.36;;;22.66;68.62
38612;BME280;24368;52.156;20.788;2023-06-26T20:51:03;99792.91;;;22.52;69.60
38612;BME280;24368;52.156;20.788;2023-06-26T20:56:04;99800.11;;;22.43;70.95
38612;BME280;24368;52.156;20.788;2023-06-26T21:01:06;99804.02;;;22.11;70.56
38612;BME280;24368;52.156;20.788;2023-06-26T21:06:07;99805.85;;;22.18;62.90
38612;BME280;24368;52.156;20.788;2023-06-26T21:11:08;99796.94;;;22.49;61.35
38612;BME280;24368;52.156;20.788;2023-06-26T21:16:09;99790.34;;;22.50;62.19
38612;BME280;24368;52.156;20.788;2023-06-26T21:21:11;99787.88;;;22.30;66.89
38612;BME280;24368;52.156;20.788;2023-06-26T21:26:12;99790.38;;;22.01;70.69
38612;BME280;24368;52.156;20.788;2023-06-26T21:31:13;99792.15;;;21.83;72.07
38612;BME280;24368;52.156;20.788;2023-06-26T21:36:14;99797.64;;;21.69;73.39
38612;BME280;24368;52.156;20.788;2023-06-26T21:41:15;99797.31;;;21.59;73.34
38612;BME280;24368;52.156;20.788;2023-06-26T21:46:16;99801.44;;;21.61;72.32
38612;BME280;24368;52.156;20.788;2023-06-26T21:51:18;99798.19;;;21.72;72.59
38612;BME280;24368;52.156;20.788;2023-06-26T21:56:19;99797.05;;;21.77;74.16
38612;BME280;24368;52.156;20.788;2023-06-26T22:01:20;99798.11;;;21.68;73.78
38612;BME280;24368;52.156;20.788;2023-06-26T22:06:21;99794.39;;;21.53;75.08
38612;BME280;24368;52.156;20.788;2023-06-26T22:11:22;99794.73;;;21.36;76.32
38612;BME280;24368;52.156;20.788;2023-06-26T22:16:23;99795.46;;;21.14;77.47
38612;BME280;24368;52.156;20.788;2023-06-26T22:21:24;99790.14;;;21.19;77.52
38612;BME280;24368;52.156;20.788;2023-06-26T22:26:25;99773.13;;;21.35;79.21
38612;BME280;24368;52.156;20.788;2023-06-26T22:31:26;99772.23;;;21.34;77.79
38612;BME280;24368;52.156;20.788;2023-06-26T22:36:27;99771.05;;;21.34;77.32
38612;BME280;24368;52.156;20.788;2023-06-26T22:41:28;99769.69;;;21.28;75.25
38612;BME280;24368;52.156;20.788;2023-06-26T22:46:29;99761.61;;;21.25;77.09
38612;BME280;24368;52.156;20.788;2023-06-26T22:51:30;99755.27;;;21.23;77.89
38612;BME280;24368;52.156;20.788;2023-06-26T22:56:32;99750.80;;;21.19;78.43
38612;BME280;24368;52.156;20.788;2023-06-26T23:01:35;99738.69;;;21.21;77.96
38612;BME280;24368;52.156;20.788;2023-06-26T23:06:37;99734.64;;;21.34;77.68
38612;BME280;24368;52.156;20.788;2023-06-26T23:11:44;99734.08;;;21.37;77.42
38612;BME280;24368;52.156;20.788;2023-06-26T23:16:50;99729.60;;;21.44;76.61
38612;BME280;24368;52.156;20.788;2023-06-26T23:22:02;99729.00;;;21.50;74.89
38612;BME280;24368;52.156;20.788;2023-06-26T23:27:10;99719.08;;;21.22;77.69
38612;BME280;24368;52.156;20.788;2023-06-26T23:32:11;99712.99;;;20.79;81.34
38612;BME280;24368;52.156;20.788;2023-06-26T23:37:12;99705.77;;;20.70;80.88
38612;BME280;24368;52.156;20.788;2023-06-26T23:42:13;99703.21;;;20.78;79.53
38612;BME280;24368;52.156;20.788;2023-06-26T23:47:16;99734.39;;;20.40;82.14
38612;BME280;24368;52.156;20.788;2023-06-26T23:52:21;99748.96;;;20.18;80.33
38612;BME280;24368;52.156;20.788;2023-06-26T23:57:23;99748.40;;;20.82;74.75
